sensor_id;sensor_type;location;lat;lon;timestamp;temperature;humidity
2647;DHT22;1333;50.958;6.770;2022-09-03T00:00:48;16.20;99.90
2647;DHT22;1333;50.958;6.770;2022-09-03T00:03:24;16.20;99.90
2647;DHT22;1333;50.958;6.770;2022-09-03T00:08:42;16.30;99.90
2647;DHT22;1333;50.958;6.770;2022-09-03T00:11:19;16.30;99.90
2647;DHT22;1333;50.958;6.770;2022-09-03T00:14:06;16.30;99.90
2647;DHT22;1333;50.958;6.770;2022-09-03T00:19:10;16.20;99.90
2647;DHT22;1333;50.958;6.770;2022-09-03T00:21:42;16.20;99.90
2647;DHT22;1333;50.958;6.770;2022-09-03T00:24:12;16.20;99.90
2647;DHT22;1333;50.958;6.770;2022-09-03T00:26:43;16.10;99.90
2647;DHT22;1333;50.958;6.770;2022-09-03T00:29:34;16.10;99.90
2647;DHT22;1333;50.958;6.770;2022-09-03T00:32:12;16.10;99.90
2647;DHT22;1333;50.958;6.770;2022-09-03T00:34:42;16.10;99.90
2647;DHT22;1333;50.958;6.770;2022-09-03T00:37:09;16.10;99.90
2647;DHT22;1333;50.958;6.770;2022-09-03T00:39:36;16.00;99.90
2647;DHT22;1333;50.958;6.770;2022-09-03T00:48:01;15.90;99.90
2647;DHT22;1333;50.958;6.770;2022-09-03T00:53:14;15.90;99.90
2647;DHT22;1333;50.958;6.770;2022-09-03T01:00:50;15.80;99.90
2647;DHT22;1333;50.958;6.770;2022-09-03T01:06:17;15.70;99.90
2647;DHT22;1333;50.958;6.770;2022-09-03T01:11:43;15.60;99.90
2647;DHT22;1333;50.958;6.770;2022-09-03T01:17:01;15.50;99.90
2647;DHT22;1333;50.958;6.770;2022-09-03T01:30:32;15.50;99.90
2647;DHT22;1333;50.958;6.770;2022-09-03T01:33:05;15.50;99.90
2647;DHT22;1333;50.958;6.770;2022-09-03T01:41:02;15.30;99.90
2647;DHT22;1333;50.958;6.770;2022-09-03T01:46:51;15.20;99.90
2647;DHT22;1333;50.958;6.770;2022-09-03T01:49:30;15.10;99.90
2647;DHT22;1333;50.958;6.770;2022-09-03T01:52:05;15.00;99.90
2647;DHT22;1333;50.958;6.770;2022-09-03T01:54:50;15.00;99.90
2647;DHT22;1333;50.958;6.770;2022-09-03T01:57:34;15.00;99.90
2647;DHT22;1333;50.958;6.770;2022-09-03T02:00:08;15.00;99.90
2647;DHT22;1333;50.958;6.770;2022-09-03T02:02:35;15.00;99.90
2647;DHT22;1333;50.958;6.770;2022-09-03T02:05:08;15.00;99.90
2647;DHT22;1333;50.958;6.770;2022-09-03T02:07:37;15.00;99.90
2647;DHT22;1333;50.958;6.770;2022-09-03T02:10:06;15.00;99.90
2647;DHT22;1333;50.958;6.770;2022-09-03T02:12:34;15.00;99.90
2647;DHT22;1333;50.958;6.770;2022-09-03T02:15:04;15.00;99.90
2647;DHT22;1333;50.958;6.770;2022-09-03T02:17:31;15.00;99.90
2647;DHT22;1333;50.958;6.770;2022-09-03T02:19:58;15.00;99.90
2647;DHT22;1333;50.958;6.770;2022-09-03T02:22:28;14.90;99.90
2647;DHT22;1333;50.958;6.770;2022-09-03T02:24:53;14.80;99.90
2647;DHT22;1333;50.958;6.770;2022-09-03T02:27:19;14.90;99.90
2647;DHT22;1333;50.958;6.770;2022-09-03T02:29:45;14.80;99.90
2647;DHT22;1333;50.958;6.770;2022-09-03T02:32:11;14.90;99.90
2647;DHT22;1333;50.958;6.770;2022-09-03T02:34:40;14.80;99.90
2647;DHT22;1333;50.958;6.770;2022-09-03T02:37:17;14.80;99.90
2647;DHT22;1333;50.958;6.770;2022-09-03T02:39:44;14.70;99.90
2647;DHT22;1333;50.958;6.770;2022-09-03T02:42:12;14.70;99.90
2647;DHT22;1333;50.958;6.770;2022-09-03T02:44:45;14.70;99.90
2647;DHT22;1333;50.958;6.770;2022-09-03T02:47:12;14.60;99.90
2647;DHT22;1333;50.958;6.770;2022-09-03T02:49:39;14.60;99.90
2647;DHT22;1333;50.958;6.770;2022-09-03T02:52:07;14.60;99.90
2647;DHT22;1333;50.958;6.770;2022-09-03T02:54:38;14.60;99.90
2647;DHT22;1333;50.958;6.770;2022-09-03T02:57:08;14.60;99.90
2647;DHT22;1333;50.958;6.770;2022-09-03T02:59:33;14.60;99.90
2647;DHT22;1333;50.958;6.770;2022-09-03T03:01:59;14.60;99.90
2647;DHT22;1333;50.958;6.770;2022-09-03T03:04:25;14.60;99.90
2647;DHT22;1333;50.958;6.770;2022-09-03T03:06:51;14.60;99.90
2647;DHT22;1333;50.958;6.770;2022-09-03T03:09:17;14.60;99.90
2647;DHT22;1333;50.958;6.770;2022-09-03T03:11:42;14.60;99.90
2647;DHT22;1333;50.958;6.770;2022-09-03T03:14:08;14.60;99.90
2647;DHT22;1333;50.958;6.770;2022-09-03T03:16:34;14.60;99.90
2647;DHT22;1333;50.958;6.770;2022-09-03T03:18:59;14.60;99.90
2647;DHT22;1333;50.958;6.770;2022-09-03T03:21:25;14.60;99.90
2647;DHT22;1333;50.958;6.770;2022-09-03T03:23:51;14.50;99.90
2647;DHT22;1333;50.958;6.770;2022-09-03T03:26:18;14.60;99.90
2647;DHT22;1333;50.958;6.770;2022-09-03T03:28:47;14.70;99.90
2647;DHT22;1333;50.958;6.770;2022-09-03T03:31:20;14.70;99.90
2647;DHT22;1333;50.958;6.770;2022-09-03T03:33:51;14.70;99.90
2647;DHT22;1333;50.958;6.770;2022-09-03T03:36:18;14.70;99.90
2647;DHT22;1333;50.958;6.770;2022-09-03T03:38:44;14.80;99.90
2647;DHT22;1333;50.958;6.770;2022-09-03T03:41:18;14.80;99.90
2647;DHT22;1333;50.958;6.770;2022-09-03T03:43:44;14.80;99.90
2647;DHT22;1333;50.958;6.770;2022-09-03T03:46:10;14.80;99.90
2647;DHT22;1333;50.958;6.770;2022-09-03T03:48:37;14.90;99.90
2647;DHT22;1333;50.958;6.770;2022-09-03T03:51:07;14.90;99.90
2647;DHT22;1333;50.958;6.770;2022-09-03T03:53:34;14.90;99.90
2647;DHT22;1333;50.958;6.770;2022-09-03T03:56:03;14.80;99.90
2647;DHT22;1333;50.958;6.770;2022-09-03T03:58:30;14.80;99.90
2647;DHT22;1333;50.958;6.770;2022-09-03T04:01:12;14.80;99.90
2647;DHT22;1333;50.958;6.770;2022-09-03T04:03:38;14.70;99.90
2647;DHT22;1333;50.958;6.770;2022-09-03T04:06:05;14.70;99.90
2647;DHT22;1333;50.958;6.770;2022-09-03T04:08:36;14.70;99.90
2647;DHT22;1333;50.958;6.770;2022-09-03T04:11:04;14.70;99.90
2647;DHT22;1333;50.958;6.770;2022-09-03T04:13:31;14.70;99.90
2647;DHT22;1333;50.958;6.770;2022-09-03T04:16:12;14.70;99.90
2647;DHT22;1333;50.958;6.770;2022-09-03T04:18:39;14.70;99.90
2647;DHT22;1333;50.958;6.770;2022-09-03T04:21:07;14.80;99.90
2647;DHT22;1333;50.958;6.770;2022-09-03T04:23:34;14.80;99.90
2647;DHT22;1333;50.958;6.770;2022-09-03T04:26:01;14.90;99.90
2647;DHT22;1333;50.958;6.770;2022-09-03T04:28:27;14.90;99.90
2647;DHT22;1333;50.958;6.770;2022-09-03T04:30:53;15.00;99.90
2647;DHT22;1333;50.958;6.770;2022-09-03T04:33:19;15.00;99.90
2647;DHT22;1333;50.958;6.770;2022-09-03T04:35:45;15.10;99.90
2647;DHT22;1333;50.958;6.770;2022-09-03T04:38:10;15.20;99.90
2647;DHT22;1333;50.958;6.770;2022-09-03T04:40:36;15.20;99.90
2647;DHT22;1333;50.958;6.770;2022-09-03T04:43:02;15.20;99.90
2647;DHT22;1333;50.958;6.770;2022-09-03T04:45:28;15.30;99.90
2647;DHT22;1333;50.958;6.770;2022-09-03T04:47:57;15.30;99.90
2647;DHT22;1333;50.958;6.770;2022-09-03T04:50:23;15.40;99.90
2647;DHT22;1333;50.958;6.770;2022-09-03T04:52:49;15.40;99.90
2647;DHT22;1333;50.958;6.770;2022-09-03T04:55:15;15.50;99.90
2647;DHT22;1333;50.958;6.770;2022-09-03T04:57:41;15.50;99.90
2647;DHT22;1333;50.958;6.770;2022-09-03T05:00:08;15.60;99.90
2647;DHT22;1333;50.958;6.770;2022-09-03T05:02:36;15.70;99.90
2647;DHT22;1333;50.958;6.770;2022-09-03T05:05:01;15.70;99.90
2647;DHT22;1333;50.958;6.770;2022-09-03T05:07:27;15.70;99.90
2647;DHT22;1333;50.958;6.770;2022-09-03T05:10:05;15.80;99.90
2647;DHT22;1333;50.958;6.770;2022-09-03T05:12:31;15.80;99.90
2647;DHT22;1333;50.958;6.770;2022-09-03T05:14:57;15.80;99.90
2647;DHT22;1333;50.958;6.770;2022-09-03T05:17:24;15.90;99.90
2647;DHT22;1333;50.958;6.770;2022-09-03T05:19:50;15.90;99.90
2647;DHT22;1333;50.958;6.770;2022-09-03T05:22:15;15.90;99.90
2647;DHT22;1333;50.958;6.770;2022-09-03T05:24:46;16.00;99.90
2647;DHT22;1333;50.958;6.770;2022-09-03T05:27:11;16.10;99.90
2647;DHT22;1333;50.958;6.770;2022-09-03T05:29:37;16.20;99.90
2647;DHT22;1333;50.958;6.770;2022-09-03T05:32:02;16.30;99.90
2647;DHT22;1333;50.958;6.770;2022-09-03T05:34:28;16.40;99.90
2647;DHT22;1333;50.958;6.770;2022-09-03T05:36:54;16.50;99.90
2647;DHT22;1333;50.958;6.770;2022-09-03T05:39:22;16.60;99.90
2647;DHT22;1333;50.958;6.770;2022-09-03T05:41:48;16.60;99.90
2647;DHT22;1333;50.958;6.770;2022-09-03T05:44:17;16.70;99.90
2647;DHT22;1333;50.958;6.770;2022-09-03T05:46:43;16.70;99.90
2647;DHT22;1333;50.958;6.770;2022-09-03T05:49:08;16.80;99.90
2647;DHT22;1333;50.958;6.770;2022-09-03T05:51:36;16.90;99.90
2647;DHT22;1333;50.958;6.770;2022-09-03T05:54:04;17.00;99.90
2647;DHT22;1333;50.958;6.770;2022-09-03T05:56:31;17.10;99.90
2647;DHT22;1333;50.958;6.770;2022-09-03T05:59:00;17.20;99.90
2647;DHT22;1333;50.958;6.770;2022-09-03T06:01:31;17.40;99.90
2647;DHT22;1333;50.958;6.770;2022-09-03T06:04:02;17.60;99.90
2647;DHT22;1333;50.958;6.770;2022-09-03T06:06:29;17.70;99.90
2647;DHT22;1333;50.958;6.770;2022-09-03T06:08:57;17.70;99.90
2647;DHT22;1333;50.958;6.770;2022-09-03T06:11:26;17.60;99.90
2647;DHT22;1333;50.958;6.770;2022-09-03T06:14:01;17.70;99.90
2647;DHT22;1333;50.958;6.770;2022-09-03T06:16:29;17.70;99.90
2647;DHT22;1333;50.958;6.770;2022-09-03T06:18:55;17.50;99.90
2647;DHT22;1333;50.958;6.770;2022-09-03T06:21:21;17.60;99.90
2647;DHT22;1333;50.958;6.770;2022-09-03T06:23:51;17.70;99.90
2647;DHT22;1333;50.958;6.770;2022-09-03T06:26:17;17.80;99.90
2647;DHT22;1333;50.958;6.770;2022-09-03T06:28:44;17.90;99.90
2647;DHT22;1333;50.958;6.770;2022-09-03T06:31:12;18.10;99.90
2647;DHT22;1333;50.958;6.770;2022-09-03T06:33:39;18.20;99.90
2647;DHT22;1333;50.958;6.770;2022-09-03T06:36:09;18.20;99.90
2647;DHT22;1333;50.958;6.770;2022-09-03T06:38:36;18.40;99.90
2647;DHT22;1333;50.958;6.770;2022-09-03T06:41:23;18.50;99.90
2647;DHT22;1333;50.958;6.770;2022-09-03T06:43:58;18.70;99.90
2647;DHT22;1333;50.958;6.770;2022-09-03T06:46:26;18.80;99.90
2647;DHT22;1333;50.958;6.770;2022-09-03T06:48:52;18.90;99.90
2647;DHT22;1333;50.958;6.770;2022-09-03T06:51:22;18.80;99.90
2647;DHT22;1333;50.958;6.770;2022-09-03T06:53:50;18.80;99.90
2647;DHT22;1333;50.958;6.770;2022-09-03T06:56:23;18.80;99.90
2647;DHT22;1333;50.958;6.770;2022-09-03T06:58:56;18.70;99.90
2647;DHT22;1333;50.958;6.770;2022-09-03T07:01:26;18.70;99.90
2647;DHT22;1333;50.958;6.770;2022-09-03T07:03:57;18.80;99.90
2647;DHT22;1333;50.958;6.770;2022-09-03T07:06:28;18.80;99.90
2647;DHT22;1333;50.958;6.770;2022-09-03T07:08:54;18.90;99.90
2647;DHT22;1333;50.958;6.770;2022-09-03T07:11:24;18.90;99.90
2647;DHT22;1333;50.958;6.770;2022-09-03T07:13:51;18.90;99.90
2647;DHT22;1333;50.958;6.770;2022-09-03T07:16:20;18.90;99.90
2647;DHT22;1333;50.958;6.770;2022-09-03T07:18:47;19.00;99.90
2647;DHT22;1333;50.958;6.770;2022-09-03T07:21:15;19.00;99.90
2647;DHT22;1333;50.958;6.770;2022-09-03T07:23:41;19.00;99.90
2647;DHT22;1333;50.958;6.770;2022-09-03T07:26:09;19.10;99.90
2647;DHT22;1333;50.958;6.770;2022-09-03T07:28:36;19.10;99.90
2647;DHT22;1333;50.958;6.770;2022-09-03T07:33:30;19.30;99.90
2647;DHT22;1333;50.958;6.770;2022-09-03T07:36:01;19.40;99.90
2647;DHT22;1333;50.958;6.770;2022-09-03T07:38:27;19.40;99.90
2647;DHT22;1333;50.958;6.770;2022-09-03T07:41:00;19.50;99.90
2647;DHT22;1333;50.958;6.770;2022-09-03T07:43:27;19.60;99.90
2647;DHT22;1333;50.958;6.770;2022-09-03T07:45:53;19.70;99.90
2647;DHT22;1333;50.958;6.770;2022-09-03T07:48:21;19.90;99.90
2647;DHT22;1333;50.958;6.770;2022-09-03T07:50:47;20.00;99.90
2647;DHT22;1333;50.958;6.770;2022-09-03T07:53:15;20.10;99.90
2647;DHT22;1333;50.958;6.770;2022-09-03T07:55:42;20.30;98.20
2647;DHT22;1333;50.958;6.770;2022-09-03T07:58:08;20.50;98.40
2647;DHT22;1333;50.958;6.770;2022-09-03T08:00:36;20.60;96.20
2647;DHT22;1333;50.958;6.770;2022-09-03T08:03:01;20.70;95.40
2647;DHT22;1333;50.958;6.770;2022-09-03T08:05:31;20.80;94.80
2647;DHT22;1333;50.958;6.770;2022-09-03T08:07:59;21.00;92.50
2647;DHT22;1333;50.958;6.770;2022-09-03T08:10:25;21.10;90.40
2647;DHT22;1333;50.958;6.770;2022-09-03T08:12:52;21.60;88.00
2647;DHT22;1333;50.958;6.770;2022-09-03T08:15:18;22.30;84.10
2647;DHT22;1333;50.958;6.770;2022-09-03T08:17:44;23.10;77.80
2647;DHT22;1333;50.958;6.770;2022-09-03T08:20:09;23.80;73.70
2647;DHT22;1333;50.958;6.770;2022-09-03T08:22:35;24.00;70.10
2647;DHT22;1333;50.958;6.770;2022-09-03T08:25:02;23.90;66.70
2647;DHT22;1333;50.958;6.770;2022-09-03T08:27:27;24.00;66.10
2647;DHT22;1333;50.958;6.770;2022-09-03T08:29:53;24.70;66.50
2647;DHT22;1333;50.958;6.770;2022-09-03T08:32:19;25.40;63.60
2647;DHT22;1333;50.958;6.770;2022-09-03T08:34:44;25.40;58.70
2647;DHT22;1333;50.958;6.770;2022-09-03T08:37:11;24.70;58.70
2647;DHT22;1333;50.958;6.770;2022-09-03T08:39:37;24.40;59.80
2647;DHT22;1333;50.958;6.770;2022-09-03T08:44:50;23.60;61.20
2647;DHT22;1333;50.958;6.770;2022-09-03T08:55:54;23.90;64.50
2647;DHT22;1333;50.958;6.770;2022-09-03T08:58:25;23.80;63.40
2647;DHT22;1333;50.958;6.770;2022-09-03T09:06:48;25.50;61.30
2647;DHT22;1333;50.958;6.770;2022-09-03T09:09:33;27.30;58.40
2647;DHT22;1333;50.958;6.770;2022-09-03T09:12:09;29.20;52.40
2647;DHT22;1333;50.958;6.770;2022-09-03T09:14:47;29.90;49.90
2647;DHT22;1333;50.958;6.770;2022-09-03T09:17:27;30.80;47.40
2647;DHT22;1333;50.958;6.770;2022-09-03T09:22:44;31.90;42.90
2647;DHT22;1333;50.958;6.770;2022-09-03T09:25:15;32.00;42.70
2647;DHT22;1333;50.958;6.770;2022-09-03T09:28:01;30.60;43.10
2647;DHT22;1333;50.958;6.770;2022-09-03T09:30:29;29.70;45.10
2647;DHT22;1333;50.958;6.770;2022-09-03T09:32:55;30.10;45.90
2647;DHT22;1333;50.958;6.770;2022-09-03T09:35:21;31.10;44.80
2647;DHT22;1333;50.958;6.770;2022-09-03T09:37:55;32.10;45.20
2647;DHT22;1333;50.958;6.770;2022-09-03T09:40:24;33.80;41.80
2647;DHT22;1333;50.958;6.770;2022-09-03T09:42:50;34.40;40.30
2647;DHT22;1333;50.958;6.770;2022-09-03T09:45:23;35.30;39.20
2647;DHT22;1333;50.958;6.770;2022-09-03T09:47:48;36.20;37.10
2647;DHT22;1333;50.958;6.770;2022-09-03T09:50:20;36.80;36.90
2647;DHT22;1333;50.958;6.770;2022-09-03T09:52:46;37.70;35.20
2647;DHT22;1333;50.958;6.770;2022-09-03T09:55:18;38.00;34.20
2647;DHT22;1333;50.958;6.770;2022-09-03T09:57:44;37.90;33.80
2647;DHT22;1333;50.958;6.770;2022-09-03T10:00:12;37.40;33.10
2647;DHT22;1333;50.958;6.770;2022-09-03T10:02:47;36.70;33.80
2647;DHT22;1333;50.958;6.770;2022-09-03T10:05:30;36.30;34.40
2647;DHT22;1333;50.958;6.770;2022-09-03T10:08:03;36.00;34.50
2647;DHT22;1333;50.958;6.770;2022-09-03T10:10:32;35.20;35.40
2647;DHT22;1333;50.958;6.770;2022-09-03T10:13:14;34.30;35.40
2647;DHT22;1333;50.958;6.770;2022-09-03T10:18:42;33.80;38.70
2647;DHT22;1333;50.958;6.770;2022-09-03T10:21:25;34.60;37.50
2647;DHT22;1333;50.958;6.770;2022-09-03T10:26:58;35.60;36.10
2647;DHT22;1333;50.958;6.770;2022-09-03T10:29:24;35.20;36.60
2647;DHT22;1333;50.958;6.770;2022-09-03T10:37:52;34.70;37.20
2647;DHT22;1333;50.958;6.770;2022-09-03T10:40:40;34.20;37.90
2647;DHT22;1333;50.958;6.770;2022-09-03T10:46:04;33.70;39.00
2647;DHT22;1333;50.958;6.770;2022-09-03T10:51:33;34.30;39.20
2647;DHT22;1333;50.958;6.770;2022-09-03T10:56:52;38.40;36.00
2647;DHT22;1333;50.958;6.770;2022-09-03T11:02:19;39.20;33.00
2647;DHT22;1333;50.958;6.770;2022-09-03T11:05:01;40.00;33.50
2647;DHT22;1333;50.958;6.770;2022-09-03T11:08:00;41.20;33.20
2647;DHT22;1333;50.958;6.770;2022-09-03T11:10:37;42.10;30.50
2647;DHT22;1333;50.958;6.770;2022-09-03T11:13:08;41.20;30.20
2647;DHT22;1333;50.958;6.770;2022-09-03T11:15:53;40.30;31.40
2647;DHT22;1333;50.958;6.770;2022-09-03T11:20:52;40.30;31.90
2647;DHT22;1333;50.958;6.770;2022-09-03T11:23:21;40.50;32.40
2647;DHT22;1333;50.958;6.770;2022-09-03T11:25:53;40.50;31.50
2647;DHT22;1333;50.958;6.770;2022-09-03T11:36:50;43.00;30.00
2647;DHT22;1333;50.958;6.770;2022-09-03T11:39:32;43.50;29.60
2647;DHT22;1333;50.958;6.770;2022-09-03T11:42:01;43.80;29.30
2647;DHT22;1333;50.958;6.770;2022-09-03T11:45:11;44.30;29.50
2647;DHT22;1333;50.958;6.770;2022-09-03T11:47:43;43.90;29.30
2647;DHT22;1333;50.958;6.770;2022-09-03T11:50:29;44.20;29.10
2647;DHT22;1333;50.958;6.770;2022-09-03T11:53:20;42.40;28.10
2647;DHT22;1333;50.958;6.770;2022-09-03T11:58:30;42.20;29.80
2647;DHT22;1333;50.958;6.770;2022-09-03T12:00:57;42.60;29.90
2647;DHT22;1333;50.958;6.770;2022-09-03T12:03:28;43.40;29.80
2647;DHT22;1333;50.958;6.770;2022-09-03T12:16:38;41.60;29.50
2647;DHT22;1333;50.958;6.770;2022-09-03T12:19:19;39.70;29.90
2647;DHT22;1333;50.958;6.770;2022-09-03T12:21:49;38.90;31.90
2647;DHT22;1333;50.958;6.770;2022-09-03T12:24:15;39.40;33.00
2647;DHT22;1333;50.958;6.770;2022-09-03T12:26:42;40.20;32.20
2647;DHT22;1333;50.958;6.770;2022-09-03T12:29:24;41.10;31.60
2647;DHT22;1333;50.958;6.770;2022-09-03T12:31:50;41.20;30.40
2647;DHT22;1333;50.958;6.770;2022-09-03T12:34:18;41.10;31.10
2647;DHT22;1333;50.958;6.770;2022-09-03T12:36:49;41.20;30.00
2647;DHT22;1333;50.958;6.770;2022-09-03T12:39:20;41.50;30.50
2647;DHT22;1333;50.958;6.770;2022-09-03T12:41:59;42.30;30.60
2647;DHT22;1333;50.958;6.770;2022-09-03T12:49:40;44.90;28.90
2647;DHT22;1333;50.958;6.770;2022-09-03T12:52:30;45.50;28.40
2647;DHT22;1333;50.958;6.770;2022-09-03T12:55:03;45.90;28.10
2647;DHT22;1333;50.958;6.770;2022-09-03T12:57:38;46.10;28.00
2647;DHT22;1333;50.958;6.770;2022-09-03T13:00:07;46.10;27.70
2647;DHT22;1333;50.958;6.770;2022-09-03T13:02:45;45.20;27.60
2647;DHT22;1333;50.958;6.770;2022-09-03T13:05:16;44.60;28.30
2647;DHT22;1333;50.958;6.770;2022-09-03T13:07:46;44.50;28.80
2647;DHT22;1333;50.958;6.770;2022-09-03T13:10:37;45.10;28.70
2647;DHT22;1333;50.958;6.770;2022-09-03T13:13:30;45.60;27.90
2647;DHT22;1333;50.958;6.770;2022-09-03T13:18:58;44.50;28.10
2647;DHT22;1333;50.958;6.770;2022-09-03T13:24:39;43.10;29.10
2647;DHT22;1333;50.958;6.770;2022-09-03T13:27:14;43.30;28.60
2647;DHT22;1333;50.958;6.770;2022-09-03T13:38:04;43.30;29.70
2647;DHT22;1333;50.958;6.770;2022-09-03T13:40:48;43.50;29.10
2647;DHT22;1333;50.958;6.770;2022-09-03T13:43:28;43.40;28.90
2647;DHT22;1333;50.958;6.770;2022-09-03T13:46:06;42.90;29.10
2647;DHT22;1333;50.958;6.770;2022-09-03T13:48:39;42.70;29.60
2647;DHT22;1333;50.958;6.770;2022-09-03T13:51:41;42.90;29.60
2647;DHT22;1333;50.958;6.770;2022-09-03T13:54:29;43.50;29.80
2647;DHT22;1333;50.958;6.770;2022-09-03T13:57:00;42.90;29.70
2647;DHT22;1333;50.958;6.770;2022-09-03T14:05:37;42.50;29.30
2647;DHT22;1333;50.958;6.770;2022-09-03T14:16:10;41.60;30.10
2647;DHT22;1333;50.958;6.770;2022-09-03T14:19:13;41.00;30.00
2647;DHT22;1333;50.958;6.770;2022-09-03T14:21:58;40.30;30.40
2647;DHT22;1333;50.958;6.770;2022-09-03T14:27:01;39.60;32.30
2647;DHT22;1333;50.958;6.770;2022-09-03T14:29:29;40.00;32.70
2647;DHT22;1333;50.958;6.770;2022-09-03T14:46:06;34.70;37.40
2647;DHT22;1333;50.958;6.770;2022-09-03T14:48:42;34.30;37.30
2647;DHT22;1333;50.958;6.770;2022-09-03T14:53:58;33.30;39.20
2647;DHT22;1333;50.958;6.770;2022-09-03T14:56:30;33.00;40.00
2647;DHT22;1333;50.958;6.770;2022-09-03T15:01:32;31.90;41.80
2647;DHT22;1333;50.958;6.770;2022-09-03T15:04:03;31.40;42.30
2647;DHT22;1333;50.958;6.770;2022-09-03T15:06:59;31.00;42.80
2647;DHT22;1333;50.958;6.770;2022-09-03T15:09:31;30.20;43.70
2647;DHT22;1333;50.958;6.770;2022-09-03T15:12:18;29.80;45.50
2647;DHT22;1333;50.958;6.770;2022-09-03T15:14:54;29.20;46.20
2647;DHT22;1333;50.958;6.770;2022-09-03T15:17:46;28.90;47.00
2647;DHT22;1333;50.958;6.770;2022-09-03T15:36:59;27.40;53.60
2647;DHT22;1333;50.958;6.770;2022-09-03T15:39:34;27.40;52.30
2647;DHT22;1333;50.958;6.770;2022-09-03T15:42:06;27.30;51.90
2647;DHT22;1333;50.958;6.770;2022-09-03T15:44:40;27.30;52.80
2647;DHT22;1333;50.958;6.770;2022-09-03T15:47:10;27.40;52.70
2647;DHT22;1333;50.958;6.770;2022-09-03T15:49:54;27.40;53.40
2647;DHT22;1333;50.958;6.770;2022-09-03T15:52:58;27.50;52.90
2647;DHT22;1333;50.958;6.770;2022-09-03T15:55:37;27.40;52.60
2647;DHT22;1333;50.958;6.770;2022-09-03T16:03:13;27.50;52.90
2647;DHT22;1333;50.958;6.770;2022-09-03T16:06:23;27.50;53.60
2647;DHT22;1333;50.958;6.770;2022-09-03T16:08:54;27.10;56.60
2647;DHT22;1333;50.958;6.770;2022-09-03T16:17:08;26.10;65.30
2647;DHT22;1333;50.958;6.770;2022-09-03T16:22:29;25.80;78.20
2647;DHT22;1333;50.958;6.770;2022-09-03T16:28:12;25.60;91.80
2647;DHT22;1333;50.958;6.770;2022-09-03T16:30:59;25.40;93.70
2647;DHT22;1333;50.958;6.770;2022-09-03T16:36:34;25.00;99.90
2647;DHT22;1333;50.958;6.770;2022-09-03T16:39:17;24.80;99.90
2647;DHT22;1333;50.958;6.770;2022-09-03T16:44:35;24.60;99.90
2647;DHT22;1333;50.958;6.770;2022-09-03T16:47:13;24.40;99.90
2647;DHT22;1333;50.958;6.770;2022-09-03T16:55:53;24.20;99.90
2647;DHT22;1333;50.958;6.770;2022-09-03T17:01:21;24.00;99.90
2647;DHT22;1333;50.958;6.770;2022-09-03T17:07:17;23.80;99.90
2647;DHT22;1333;50.958;6.770;2022-09-03T17:18:14;23.60;99.90
2647;DHT22;1333;50.958;6.770;2022-09-03T17:23:36;23.50;99.90
2647;DHT22;1333;50.958;6.770;2022-09-03T17:26:10;23.40;99.90
2647;DHT22;1333;50.958;6.770;2022-09-03T17:31:52;23.50;99.90
2647;DHT22;1333;50.958;6.770;2022-09-03T17:37:30;23.30;99.90
2647;DHT22;1333;50.958;6.770;2022-09-03T17:40:21;23.20;99.90
2647;DHT22;1333;50.958;6.770;2022-09-03T17:42:55;22.90;99.90
2647;DHT22;1333;50.958;6.770;2022-09-03T17:50:57;22.50;99.90
2647;DHT22;1333;50.958;6.770;2022-09-03T17:53:33;22.40;99.90
2647;DHT22;1333;50.958;6.770;2022-09-03T17:56:11;22.30;99.90
2647;DHT22;1333;50.958;6.770;2022-09-03T17:58:49;22.20;99.90
2647;DHT22;1333;50.958;6.770;2022-09-03T18:01:24;22.10;99.90
2647;DHT22;1333;50.958;6.770;2022-09-03T18:04:17;22.00;99.90
2647;DHT22;1333;50.958;6.770;2022-09-03T18:06:55;21.80;99.90
2647;DHT22;1333;50.958;6.770;2022-09-03T18:12:24;21.60;99.90
2647;DHT22;1333;50.958;6.770;2022-09-03T18:15:03;21.50;99.90
2647;DHT22;1333;50.958;6.770;2022-09-03T18:17:36;21.40;99.90
2647;DHT22;1333;50.958;6.770;2022-09-03T18:20:12;21.20;99.90
2647;DHT22;1333;50.958;6.770;2022-09-03T18:23:20;21.20;99.90
2647;DHT22;1333;50.958;6.770;2022-09-03T18:26:13;21.10;99.90
2647;DHT22;1333;50.958;6.770;2022-09-03T18:29:02;20.90;99.90
2647;DHT22;1333;50.958;6.770;2022-09-03T18:31:47;20.80;99.90
2647;DHT22;1333;50.958;6.770;2022-09-03T18:34:33;20.70;99.90
2647;DHT22;1333;50.958;6.770;2022-09-03T18:37:23;20.70;99.90
2647;DHT22;1333;50.958;6.770;2022-09-03T18:40:10;20.60;99.90
2647;DHT22;1333;50.958;6.770;2022-09-03T18:43:22;20.60;99.90
2647;DHT22;1333;50.958;6.770;2022-09-03T18:46:31;20.50;99.90
2647;DHT22;1333;50.958;6.770;2022-09-03T18:52:58;20.30;99.90
2647;DHT22;1333;50.958;6.770;2022-09-03T18:56:18;20.30;99.90
2647;DHT22;1333;50.958;6.770;2022-09-03T19:02:32;20.10;99.90
2647;DHT22;1333;50.958;6.770;2022-09-03T19:05:32;20.00;99.90
2647;DHT22;1333;50.958;6.770;2022-09-03T19:08:40;19.90;99.90
2647;DHT22;1333;50.958;6.770;2022-09-03T19:11:29;19.90;99.90
2647;DHT22;1333;50.958;6.770;2022-09-03T19:23:41;19.60;99.90
2647;DHT22;1333;50.958;6.770;2022-09-03T19:27:27;19.50;99.90
2647;DHT22;1333;50.958;6.770;2022-09-03T19:30:20;19.40;99.90
2647;DHT22;1333;50.958;6.770;2022-09-03T19:36:45;19.30;99.90
2647;DHT22;1333;50.958;6.770;2022-09-03T19:49:14;19.00;99.90
2647;DHT22;1333;50.958;6.770;2022-09-03T19:55:26;18.90;99.90
2647;DHT22;1333;50.958;6.770;2022-09-03T19:58:17;18.80;99.90
2647;DHT22;1333;50.958;6.770;2022-09-03T20:01:01;18.80;99.90
2647;DHT22;1333;50.958;6.770;2022-09-03T20:03:45;18.80;99.90
2647;DHT22;1333;50.958;6.770;2022-09-03T20:06:30;18.80;99.90
2647;DHT22;1333;50.958;6.770;2022-09-03T20:09:18;18.80;99.90
2647;DHT22;1333;50.958;6.770;2022-09-03T20:12:05;18.80;99.90
2647;DHT22;1333;50.958;6.770;2022-09-03T20:14:34;18.70;99.90
2647;DHT22;1333;50.958;6.770;2022-09-03T20:17:13;18.70;99.90
2647;DHT22;1333;50.958;6.770;2022-09-03T20:20:06;18.60;99.90
2647;DHT22;1333;50.958;6.770;2022-09-03T20:22:59;18.50;99.90
2647;DHT22;1333;50.958;6.770;2022-09-03T20:42:11;18.30;99.90
2647;DHT22;1333;50.958;6.770;2022-09-03T20:45:16;18.20;99.90
2647;DHT22;1333;50.958;6.770;2022-09-03T20:59:06;18.10;99.90
2647;DHT22;1333;50.958;6.770;2022-09-03T21:04:43;18.00;99.90
2647;DHT22;1333;50.958;6.770;2022-09-03T21:09:51;18.00;99.90
2647;DHT22;1333;50.958;6.770;2022-09-03T21:28:44;17.80;99.90
2647;DHT22;1333;50.958;6.770;2022-09-03T21:31:22;17.70;99.90
2647;DHT22;1333;50.958;6.770;2022-09-03T21:33:51;17.70;99.90
2647;DHT22;1333;50.958;6.770;2022-09-03T21:36:32;17.80;99.90
2647;DHT22;1333;50.958;6.770;2022-09-03T21:39:13;17.70;99.90
2647;DHT22;1333;50.958;6.770;2022-09-03T21:42:01;17.70;99.90
2647;DHT22;1333;50.958;6.770;2022-09-03T21:47:16;17.70;99.90
2647;DHT22;1333;50.958;6.770;2022-09-03T21:53:03;17.60;99.90
2647;DHT22;1333;50.958;6.770;2022-09-03T21:58:47;17.60;99.90
2647;DHT22;1333;50.958;6.770;2022-09-03T22:04:10;17.50;99.90
2647;DHT22;1333;50.958;6.770;2022-09-03T22:09:15;17.50;99.90
2647;DHT22;1333;50.958;6.770;2022-09-03T22:11:54;17.50;99.90
2647;DHT22;1333;50.958;6.770;2022-09-03T22:14:22;17.40;99.90
2647;DHT22;1333;50.958;6.770;2022-09-03T22:19:23;17.40;99.90
2647;DHT22;1333;50.958;6.770;2022-09-03T22:21:58;17.40;99.90
2647;DHT22;1333;50.958;6.770;2022-09-03T22:27:19;17.30;99.90
2647;DHT22;1333;50.958;6.770;2022-09-03T22:42:46;17.20;99.90
2647;DHT22;1333;50.958;6.770;2022-09-03T22:48:34;17.20;99.90
2647;DHT22;1333;50.958;6.770;2022-09-03T22:51:05;17.20;99.90
2647;DHT22;1333;50.958;6.770;2022-09-03T22:53:33;17.20;99.90